createdAt,value
2019-05-23T00:00:29.313Z,99861.38
2019-05-23T00:03:19.721Z,99858.62
2019-05-23T00:06:12.582Z,99857.88
2019-05-23T00:09:02.334Z,99861.67
2019-05-23T00:11:53.197Z,99859.56
2019-05-23T00:14:37.919Z,99856.34
2019-05-23T00:17:11.455Z,99855.77
2019-05-23T00:19:43.645Z,99849.69
2019-05-23T00:22:14.839Z,99858.23
2019-05-23T00:24:47.773Z,99853.29
2019-05-23T00:27:20.651Z,99852.41
2019-05-23T00:29:51.870Z,99848.91
2019-05-23T00:32:24.461Z,99844.36
2019-05-23T00:34:56.400Z,99839.20
2019-05-23T00:37:27.534Z,99839.00
2019-05-23T00:39:58.699Z,99836.73
2019-05-23T00:42:29.834Z,99829.53
2019-05-23T00:45:01.037Z,99829.53
2019-05-23T00:47:33.166Z,99832.00
2019-05-23T00:50:06.408Z,99839.04
2019-05-23T00:52:37.422Z,99834.66
2019-05-23T00:55:10.182Z,99830.95
2019-05-23T00:57:41.772Z,99832.28
2019-05-23T01:00:15.137Z,99825.14
2019-05-23T01:02:46.640Z,99833.62
2019-05-23T01:05:18.874Z,99828.20
2019-05-23T01:07:50.452Z,99825.53
2019-05-23T01:10:23.077Z,99822.88
2019-05-23T01:12:54.159Z,99822.58
2019-05-23T01:15:25.822Z,99831.80
2019-05-23T01:17:57.287Z,99823.62
2019-05-23T01:20:38.986Z,99817.16
2019-05-23T01:23:11.599Z,99814.75
2019-05-23T01:25:42.661Z,99818.30
2019-05-23T01:28:14.341Z,99809.92
2019-05-23T01:30:46.969Z,99820.02
2019-05-23T01:33:19.250Z,99817.91
2019-05-23T01:35:50.687Z,99818.48
2019-05-23T01:38:23.058Z,99817.70
2019-05-23T01:40:54.148Z,99814.10
2019-05-23T01:43:25.725Z,99811.83
2019-05-23T01:45:56.846Z,99816.67
2019-05-23T01:48:27.871Z,99810.11
2019-05-23T01:50:58.866Z,99811.73
2019-05-23T01:53:29.882Z,99815.63
2019-05-23T01:56:01.198Z,99811.64
2019-05-23T01:58:32.778Z,99807.06
2019-05-23T02:01:04.413Z,99804.05
2019-05-23T02:03:36.149Z,99803.16
2019-05-23T02:06:07.325Z,99808.59
2019-05-23T02:08:38.564Z,99808.59
2019-05-23T02:11:09.761Z,99806.31
2019-05-23T02:13:40.932Z,99804.11
2019-05-23T02:16:12.010Z,99811.83
2019-05-23T02:18:45.242Z,99814.85
2019-05-23T02:21:17.898Z,99819.23
2019-05-23T02:23:49.430Z,99813.91
2019-05-23T02:26:22.654Z,99817.16
2019-05-23T02:28:54.342Z,99816.19
2019-05-23T02:31:25.691Z,99815.05
2019-05-23T02:33:56.995Z,99815.53
2019-05-23T02:36:28.363Z,99819.81
2019-05-23T02:39:17.347Z,99824.95
2019-05-23T02:41:53.268Z,99822.67
2019-05-23T02:44:29.504Z,99821.80
2019-05-23T02:47:18.795Z,99825.24
2019-05-23T02:49:51.260Z,99820.38
2019-05-23T02:52:28.918Z,99819.14
2019-05-23T02:55:01.327Z,99820.56
2019-05-23T02:57:32.785Z,99820.02
2019-05-23T03:00:26.713Z,99821.15
2019-05-23T03:02:59.592Z,99824.95
2019-05-23T03:05:30.760Z,99820.21
2019-05-23T03:08:01.825Z,99820.95
2019-05-23T03:10:57.961Z,99822.48
2019-05-23T03:13:32.817Z,99821.54
2019-05-23T03:16:04.108Z,99824.11
2019-05-23T03:18:40.276Z,99827.70
2019-05-23T03:21:13.509Z,99823.42
2019-05-23T03:23:44.736Z,99827.61
2019-05-23T03:26:34.960Z,99828.39
2019-05-23T03:29:06.805Z,99827.52
2019-05-23T03:31:48.994Z,99831.80
2019-05-23T03:34:21.873Z,99833.52
2019-05-23T03:36:53.160Z,99830.66
2019-05-23T03:39:24.464Z,99828.00
2019-05-23T03:41:57.296Z,99823.42
2019-05-23T03:44:29.820Z,99823.72
2019-05-23T03:47:01.801Z,99824.78
2019-05-23T03:49:34.062Z,99830.66
2019-05-23T03:52:05.695Z,99828.77
2019-05-23T03:54:36.939Z,99831.05
2019-05-23T03:57:09.024Z,99830.19
2019-05-23T03:59:42.778Z,99827.62
2019-05-23T04:02:15.501Z,99827.67
2019-05-23T04:04:47.266Z,99824.42
2019-05-23T04:07:19.129Z,99824.42
2019-05-23T04:09:50.794Z,99822.88
2019-05-23T04:12:22.564Z,99816.94
2019-05-23T04:14:54.024Z,99823.27
2019-05-23T04:17:25.333Z,99815.70
2019-05-23T04:19:59.113Z,99804.95
2019-05-23T04:22:31.555Z,99804.95
2019-05-23T04:25:03.094Z,99824.82
2019-05-23T04:27:34.611Z,99832.64
2019-05-23T04:30:07.840Z,99810.19
2019-05-23T04:32:39.734Z,99831.03
2019-05-23T04:35:10.951Z,99838.23
2019-05-23T04:37:42.485Z,99835.28
2019-05-23T04:40:13.726Z,99835.06
2019-05-23T04:42:44.832Z,99837.52
2019-05-23T04:45:17.209Z,99829.69
2019-05-23T04:47:49.189Z,99837.86
2019-05-23T04:50:21.461Z,99826.58
2019-05-23T04:52:53.060Z,99827.66
2019-05-23T04:55:24.242Z,99825.42
2019-05-23T04:57:55.897Z,99827.64
2019-05-23T05:00:27.617Z,99829.27
2019-05-23T05:02:59.103Z,99829.59
2019-05-23T05:05:31.153Z,99835.32
2019-05-23T05:08:02.240Z,99835.75
2019-05-23T05:10:34.848Z,99842.81
2019-05-23T05:13:06.301Z,99840.95
2019-05-23T05:15:37.722Z,99844.40
2019-05-23T05:18:08.824Z,99844.97
2019-05-23T05:20:40.596Z,99833.34
2019-05-23T05:23:11.789Z,99832.95
2019-05-23T05:25:43.108Z,99841.47
2019-05-23T05:28:14.247Z,99831.30
2019-05-23T05:30:45.873Z,99836.55
2019-05-23T05:33:17.188Z,99829.14
2019-05-23T05:35:48.862Z,99832.23
2019-05-23T05:38:20.647Z,99837.61
2019-05-23T05:40:52.511Z,99832.44
2019-05-23T05:43:23.662Z,99839.48
2019-05-23T05:45:55.265Z,99838.80
2019-05-23T05:48:27.366Z,99841.58
2019-05-23T05:50:59.648Z,99845.75
2019-05-23T05:53:30.720Z,99850.87
2019-05-23T05:56:01.781Z,99854.98
2019-05-23T05:58:32.861Z,99854.47
2019-05-23T06:01:07.011Z,99857.20
2019-05-23T06:03:38.106Z,99851.05
2019-05-23T06:06:10.833Z,99853.11
2019-05-23T06:08:43.503Z,99851.19
2019-05-23T06:11:16.378Z,99849.38
2019-05-23T06:13:47.683Z,99852.20
2019-05-23T06:16:18.859Z,99845.77
2019-05-23T06:18:49.887Z,99845.41
2019-05-23T06:21:22.752Z,99845.67
2019-05-23T06:23:55.065Z,99848.01
2019-05-23T06:26:26.753Z,99844.08
2019-05-23T06:28:58.032Z,99846.17
2019-05-23T06:31:29.865Z,99844.98
2019-05-23T06:34:02.266Z,99850.97
2019-05-23T06:36:34.149Z,99841.83
2019-05-23T06:39:07.858Z,99842.13
2019-05-23T06:41:39.124Z,99847.87
2019-05-23T06:44:10.125Z,99850.92
2019-05-23T06:46:41.540Z,99845.42
2019-05-23T06:49:12.635Z,99850.61
2019-05-23T06:51:43.725Z,99847.66
2019-05-23T06:54:17.849Z,99854.91
2019-05-23T06:56:48.827Z,99856.36
2019-05-23T06:59:19.964Z,99859.06
2019-05-23T07:01:51.173Z,99859.46
2019-05-23T07:04:23.051Z,99858.64
2019-05-23T07:06:54.169Z,99854.32
2019-05-23T07:09:26.096Z,99852.67
2019-05-23T07:11:58.911Z,99858.23
2019-05-23T07:14:30.862Z,99855.66
2019-05-23T07:17:02.094Z,99854.30
2019-05-23T07:19:34.978Z,99856.61
2019-05-23T07:22:06.851Z,99849.66
2019-05-23T07:24:38.100Z,99860.00
2019-05-23T07:27:09.430Z,99855.47
2019-05-23T07:29:41.570Z,99864.91
2019-05-23T07:32:13.009Z,99857.42
2019-05-23T07:34:44.056Z,99861.17
2019-05-23T07:37:15.610Z,99850.72
2019-05-23T07:39:46.563Z,99852.76
2019-05-23T07:42:18.496Z,99853.39
2019-05-23T07:44:52.386Z,99854.59
2019-05-23T07:47:23.619Z,99851.97
2019-05-23T07:49:54.721Z,99849.10
2019-05-23T07:52:25.926Z,99857.62
2019-05-23T07:54:58.663Z,99848.94
2019-05-23T07:57:29.634Z,99851.80
2019-05-23T08:00:01.311Z,99840.05
2019-05-23T08:02:34.101Z,99851.09
2019-05-23T08:05:07.384Z,99845.70
2019-05-23T08:07:38.924Z,99858.20
2019-05-23T08:10:10.059Z,99858.05
2019-05-23T08:12:41.490Z,99858.13
2019-05-23T08:15:13.050Z,99864.72
2019-05-23T08:17:44.223Z,99860.09
2019-05-23T08:20:16.273Z,99855.17
2019-05-23T08:22:51.501Z,99859.43
2019-05-23T08:25:22.595Z,99854.02
2019-05-23T08:27:53.634Z,99850.29
2019-05-23T08:30:24.716Z,99855.27
2019-05-23T08:32:56.466Z,99855.45
2019-05-23T08:35:27.476Z,99860.42
2019-05-23T08:37:59.082Z,99854.22
2019-05-23T08:40:31.013Z,99863.83
2019-05-23T08:43:02.797Z,99859.06
2019-05-23T08:45:33.859Z,99858.36
2019-05-23T08:48:06.456Z,99858.64
2019-05-23T08:50:37.608Z,99850.45
2019-05-23T08:53:09.519Z,99851.70
2019-05-23T08:55:40.891Z,99856.94
2019-05-23T08:58:12.261Z,99853.97
2019-05-23T09:00:43.464Z,99845.53
2019-05-23T09:03:15.190Z,99852.58
2019-05-23T09:05:47.877Z,99852.52
2019-05-23T09:08:20.149Z,99847.86
2019-05-23T09:10:51.245Z,99847.52
2019-05-23T09:13:24.316Z,99852.62
2019-05-23T09:15:55.478Z,99850.02
2019-05-23T09:18:26.601Z,99854.84
2019-05-23T09:20:57.755Z,99856.79
2019-05-23T09:23:29.175Z,99857.86
2019-05-23T09:26:00.317Z,99854.69
2019-05-23T09:28:31.418Z,99854.27
2019-05-23T09:31:03.175Z,99858.25
2019-05-23T09:33:36.159Z,99850.18
2019-05-23T09:36:07.665Z,99853.63
2019-05-23T09:38:38.832Z,99854.06
2019-05-23T09:41:09.938Z,99851.89
2019-05-23T09:43:41.127Z,99849.06
2019-05-23T09:46:12.227Z,99858.14
2019-05-23T09:48:43.334Z,99858.70
2019-05-23T09:51:14.435Z,99858.70
2019-05-23T09:53:47.510Z,99860.05
2019-05-23T09:56:18.576Z,99862.47
2019-05-23T09:58:49.645Z,99859.92
2019-05-23T10:01:20.992Z,99862.04
2019-05-23T10:03:52.236Z,99866.91
2019-05-23T10:06:23.490Z,99867.05
2019-05-23T10:08:55.467Z,99872.06
2019-05-23T10:11:26.516Z,99877.95
2019-05-23T10:13:57.817Z,99875.73
2019-05-23T10:16:29.887Z,99876.74
2019-05-23T10:19:01.236Z,99874.76
2019-05-23T10:21:32.470Z,99875.73
2019-05-23T10:24:05.149Z,99873.41
2019-05-23T10:26:37.402Z,99873.88
2019-05-23T10:29:08.561Z,99873.59
2019-05-23T10:31:39.737Z,99879.44
2019-05-23T10:34:10.880Z,99870.11
2019-05-23T10:36:43.079Z,99877.55
2019-05-23T10:39:14.300Z,99880.69
2019-05-23T10:41:45.362Z,99880.41
2019-05-23T10:44:16.930Z,99885.55
2019-05-23T10:46:48.014Z,99884.54
2019-05-23T10:49:19.548Z,99890.52
2019-05-23T10:51:50.555Z,99889.41
2019-05-23T10:54:21.725Z,99885.84
2019-05-23T10:56:52.711Z,99882.67
2019-05-23T10:59:24.043Z,99887.41
2019-05-23T11:01:55.651Z,99885.45
2019-05-23T11:04:27.127Z,99882.39
2019-05-23T11:06:58.459Z,99882.77
2019-05-23T11:09:38.041Z,99883.12
2019-05-23T11:12:02.322Z,99873.70
2019-05-23T11:14:33.543Z,99873.80
2019-05-23T11:17:06.240Z,99880.38
2019-05-23T11:19:37.852Z,99873.88
2019-05-23T11:22:09.761Z,99869.81
2019-05-23T11:24:41.079Z,99864.87
2019-05-23T11:27:12.463Z,99866.48
2019-05-23T11:29:43.646Z,99874.14
2019-05-23T11:32:19.787Z,99875.23
2019-05-23T11:34:48.747Z,99877.92
2019-05-23T11:37:20.004Z,99876.58
2019-05-23T11:39:51.628Z,99875.09
2019-05-23T11:42:22.987Z,99873.09
2019-05-23T11:44:54.156Z,99878.63
2019-05-23T11:47:26.331Z,99879.27
2019-05-23T11:49:57.563Z,99875.23
2019-05-23T11:52:28.727Z,99876.21
2019-05-23T11:55:01.389Z,99886.70
2019-05-23T11:57:37.080Z,99878.34
2019-05-23T12:00:09.286Z,99881.40
2019-05-23T12:02:42.031Z,99879.44
2019-05-23T12:05:14.882Z,99882.95
2019-05-23T12:07:46.017Z,99880.87
2019-05-23T12:10:17.894Z,99882.29
2019-05-23T12:12:49.080Z,99879.18
2019-05-23T12:15:21.916Z,99868.27
2019-05-23T12:17:53.135Z,99874.13
2019-05-23T12:20:24.365Z,99870.91
2019-05-23T12:22:55.846Z,99874.05
2019-05-23T12:25:28.406Z,99874.36
2019-05-23T12:28:00.215Z,99868.30
2019-05-23T12:30:31.732Z,99865.69
2019-05-23T12:33:03.125Z,99862.34
2019-05-23T12:35:34.451Z,99865.77
2019-05-23T12:38:05.924Z,99860.81
2019-05-23T12:40:37.123Z,99861.48
2019-05-23T12:43:08.254Z,99860.14
2019-05-23T12:45:39.480Z,99859.48
2019-05-23T12:48:18.004Z,99853.63
2019-05-23T12:50:53.943Z,99851.41
2019-05-23T12:53:23.619Z,99854.83
2019-05-23T12:55:54.706Z,99848.18
2019-05-23T12:58:25.785Z,99850.45
2019-05-23T13:00:58.530Z,99851.40
2019-05-23T13:03:29.830Z,99852.09
2019-05-23T13:06:00.883Z,99843.65
2019-05-23T13:08:32.045Z,99846.09
2019-05-23T13:11:03.156Z,99847.77
2019-05-23T13:13:34.349Z,99843.65
2019-05-23T13:16:05.593Z,99837.78
2019-05-23T13:18:36.847Z,99839.66
2019-05-23T13:21:07.933Z,99840.31
2019-05-23T13:23:39.373Z,99836.34
2019-05-23T13:26:10.914Z,99833.15
2019-05-23T13:28:42.061Z,99830.96
2019-05-23T13:31:13.082Z,99830.31
2019-05-23T13:33:44.167Z,99824.30
2019-05-23T13:36:15.304Z,99822.59
2019-05-23T13:38:46.629Z,99818.84
2019-05-23T13:41:17.735Z,99811.45
2019-05-23T13:43:48.819Z,99812.05
2019-05-23T13:46:20.000Z,99807.75
2019-05-23T13:48:51.205Z,99806.16
2019-05-23T13:51:22.448Z,99804.60
2019-05-23T13:53:53.596Z,99799.68
2019-05-23T13:56:24.943Z,99796.84
2019-05-23T13:58:57.634Z,99796.94
2019-05-23T14:01:30.432Z,99799.02
2019-05-23T14:04:03.109Z,99805.30
2019-05-23T14:06:34.467Z,99802.28
2019-05-23T14:09:06.947Z,99799.62
2019-05-23T14:11:38.709Z,99805.97
2019-05-23T14:14:10.747Z,99802.20
2019-05-23T14:16:46.925Z,99803.47
2019-05-23T14:19:18.255Z,99804.25
2019-05-23T14:21:49.499Z,99799.59
2019-05-23T14:24:20.712Z,99795.48
2019-05-23T14:26:59.903Z,99800.12
2019-05-23T14:29:31.969Z,99799.68
2019-05-23T14:32:08.516Z,99795.48
2019-05-23T14:34:40.488Z,99797.89
2019-05-23T14:37:14.273Z,99797.97
2019-05-23T14:39:47.050Z,99800.75
2019-05-23T14:42:20.926Z,99805.26
2019-05-23T14:44:54.518Z,99799.11
2019-05-23T14:47:30.981Z,99799.69
2019-05-23T14:50:22.710Z,99795.67
2019-05-23T14:52:56.260Z,99805.38
2019-05-23T14:55:28.388Z,99810.89
2019-05-23T14:58:00.917Z,99811.42
2019-05-23T15:00:33.155Z,99815.48
2019-05-23T15:03:05.377Z,99814.50
2019-05-23T15:05:38.018Z,99814.73
2019-05-23T15:08:10.169Z,99819.14
2019-05-23T15:10:42.396Z,99815.14
2019-05-23T15:13:14.803Z,99813.55
2019-05-23T15:15:46.737Z,99820.69
2019-05-23T15:18:19.075Z,99818.77
2019-05-23T15:20:51.138Z,99820.71
2019-05-23T15:23:24.326Z,99829.54
2019-05-23T15:25:56.629Z,99825.59
2019-05-23T15:28:28.861Z,99828.28
2019-05-23T15:31:01.161Z,99836.84
2019-05-23T15:33:33.354Z,99834.20
2019-05-23T15:36:05.721Z,99841.41
2019-05-23T15:38:37.979Z,99840.43
2019-05-23T15:41:10.277Z,99835.56
2019-05-23T15:43:42.469Z,99840.67
2019-05-23T15:46:16.996Z,99841.16
2019-05-23T15:48:49.043Z,99853.48
2019-05-23T15:51:22.804Z,99846.19
2019-05-23T15:54:08.617Z,99851.52
2019-05-23T15:56:48.475Z,99850.36
2019-05-23T15:59:22.052Z,99852.64
2019-05-23T16:01:58.649Z,99856.67
2019-05-23T16:04:30.858Z,99854.02
2019-05-23T16:07:04.063Z,99855.14
2019-05-23T16:09:38.850Z,99854.86
2019-05-23T16:12:12.173Z,99856.20
2019-05-23T16:14:44.659Z,99855.67
2019-05-23T16:17:16.624Z,99845.77
2019-05-23T16:19:49.695Z,99845.33
2019-05-23T16:22:21.870Z,99844.78
2019-05-23T16:24:53.825Z,99846.36
2019-05-23T16:27:25.824Z,99847.43
2019-05-23T16:30:00.792Z,99848.97
2019-05-23T16:32:36.384Z,99845.81
2019-05-23T16:35:08.200Z,99845.19
2019-05-23T16:37:42.692Z,99848.95
2019-05-23T16:40:14.537Z,99844.38
2019-05-23T16:42:46.423Z,99849.16
2019-05-23T16:45:18.257Z,99849.08
2019-05-23T16:47:50.533Z,99849.83
2019-05-23T16:50:22.529Z,99857.67
2019-05-23T16:52:54.290Z,99857.69
2019-05-23T16:55:39.471Z,99858.30
2019-05-23T16:58:15.556Z,99860.53
2019-05-23T17:01:04.753Z,99860.90
2019-05-23T17:03:51.332Z,99861.38
2019-05-23T17:06:27.287Z,99863.20
2019-05-23T17:09:06.675Z,99866.52
2019-05-23T17:11:44.087Z,99866.52
2019-05-23T17:14:29.715Z,99862.59
2019-05-23T17:17:38.095Z,99861.27
2019-05-23T17:20:19.150Z,99867.00
2019-05-23T17:22:42.458Z,99865.66
2019-05-23T17:25:25.788Z,99859.80
2019-05-23T17:28:08.049Z,99860.18
2019-05-23T17:30:44.112Z,99860.89
2019-05-23T17:33:16.325Z,99862.61
2019-05-23T17:35:48.407Z,99864.78
2019-05-23T17:38:20.819Z,99870.23
2019-05-23T17:40:52.842Z,99866.46
2019-05-23T17:43:26.306Z,99873.88
2019-05-23T17:45:59.137Z,99867.88
2019-05-23T17:48:31.217Z,99878.13
2019-05-23T17:51:03.809Z,99881.14
2019-05-23T17:53:36.517Z,99886.87
2019-05-23T17:56:08.785Z,99891.59
2019-05-23T17:58:41.260Z,99890.62
2019-05-23T18:01:13.576Z,99901.31
2019-05-23T18:03:45.728Z,99902.52
2019-05-23T18:06:17.591Z,99901.16
2019-05-23T18:08:50.796Z,99895.29
2019-05-23T18:11:23.212Z,99900.13
2019-05-23T18:13:55.663Z,99898.19
2019-05-23T18:16:27.932Z,99908.26
2019-05-23T18:18:59.856Z,99907.16
2019-05-23T18:21:31.961Z,99910.06
2019-05-23T18:24:04.584Z,99911.58
2019-05-23T18:26:36.809Z,99912.19
2019-05-23T18:29:10.041Z,99920.45
2019-05-23T18:31:42.864Z,99909.95
2019-05-23T18:34:15.899Z,99914.20
2019-05-23T18:36:48.626Z,99915.39
2019-05-23T18:39:22.125Z,99916.97
2019-05-23T18:41:54.157Z,99921.21
2019-05-23T18:44:26.414Z,99923.74
2019-05-23T18:47:00.194Z,99920.54
2019-05-23T18:49:32.428Z,99926.23
2019-05-23T18:52:04.713Z,99929.61
2019-05-23T18:54:37.567Z,99926.78
2019-05-23T18:57:11.070Z,99927.97
2019-05-23T18:59:44.682Z,99935.95
2019-05-23T19:02:18.579Z,99931.29
2019-05-23T19:04:53.158Z,99935.91
2019-05-23T19:07:29.389Z,99938.81
2019-05-23T19:10:05.796Z,99930.88
2019-05-23T19:12:42.745Z,99932.81
2019-05-23T19:15:14.882Z,99932.05
2019-05-23T19:17:47.246Z,99941.06
2019-05-23T19:20:21.057Z,99941.75
2019-05-23T19:22:53.920Z,99944.27
2019-05-23T19:25:26.544Z,99952.48
2019-05-23T19:27:59.515Z,99950.98
2019-05-23T19:30:37.630Z,99944.14
2019-05-23T19:33:11.843Z,99949.72
2019-05-23T19:35:53.870Z,99954.30
2019-05-23T19:38:30.776Z,99953.91
2019-05-23T19:41:05.804Z,99965.22
2019-05-23T19:43:47.918Z,99961.77
2019-05-23T19:46:19.410Z,99963.72
2019-05-23T19:48:53.522Z,99960.66
2019-05-23T19:51:36.686Z,99965.16
2019-05-23T19:54:13.419Z,99966.96
2019-05-23T19:56:48.663Z,99973.64
2019-05-23T19:59:22.972Z,99965.73
2019-05-23T20:02:07.227Z,99964.89
2019-05-23T20:04:51.369Z,99964.16
2019-05-23T20:07:25.247Z,99960.72
2019-05-23T20:10:00.523Z,99956.44
2019-05-23T20:12:34.739Z,99948.75
2019-05-23T20:15:09.458Z,99951.25
2019-05-23T20:17:43.740Z,99951.82
2019-05-23T20:20:17.791Z,99955.09
2019-05-23T20:22:51.492Z,99963.90
2019-05-23T20:25:26.314Z,99964.45
2019-05-23T20:27:59.725Z,99966.67
2019-05-23T20:30:45.980Z,99968.41
2019-05-23T20:33:18.583Z,99972.63
2019-05-23T20:35:50.973Z,99970.06
2019-05-23T20:38:24.944Z,99970.53
2019-05-23T20:40:56.977Z,99969.79
2019-05-23T20:43:29.351Z,99969.62
2019-05-23T20:46:01.434Z,99967.23
2019-05-23T20:48:33.570Z,99959.92
2019-05-23T20:51:06.389Z,99966.22
2019-05-23T20:53:38.310Z,99967.27
2019-05-23T20:56:10.272Z,99965.09
2019-05-23T20:58:43.325Z,99964.32
2019-05-23T21:01:16.881Z,99959.69
2019-05-23T21:03:49.389Z,99966.08
2019-05-23T21:06:21.364Z,99960.45
2019-05-23T21:08:53.379Z,99963.23
2019-05-23T21:11:25.652Z,99960.17
2019-05-23T21:13:57.669Z,99961.13
2019-05-23T21:16:29.556Z,99960.38
2019-05-23T21:19:01.713Z,99959.05
2019-05-23T21:21:33.639Z,99957.72
2019-05-23T21:24:05.873Z,99956.77
2019-05-23T21:26:38.125Z,99961.72
2019-05-23T21:29:10.202Z,99961.13
2019-05-23T21:31:42.125Z,99955.43
2019-05-23T21:34:14.018Z,99958.09
2019-05-23T21:36:46.024Z,99956.27
2019-05-23T21:39:17.954Z,99958.09
2019-05-23T21:41:49.905Z,99959.44
2019-05-23T21:44:21.968Z,99966.56
2019-05-23T21:46:53.929Z,99968.39
2019-05-23T21:49:26.415Z,99968.50
2019-05-23T21:51:58.630Z,99972.95
2019-05-23T21:54:30.823Z,99972.95
2019-05-23T21:57:02.979Z,99969.05
2019-05-23T21:59:36.213Z,99971.27
2019-05-23T22:02:13.661Z,99964.70
2019-05-23T22:04:47.213Z,99965.27
2019-05-23T22:07:19.453Z,99962.91
2019-05-23T22:09:51.471Z,99967.86
2019-05-23T22:12:23.407Z,99965.75
2019-05-23T22:14:55.793Z,99960.90
2019-05-23T22:17:27.798Z,99965.01
2019-05-23T22:19:59.799Z,99963.28
2019-05-23T22:22:32.033Z,99957.21
2019-05-23T22:25:04.612Z,99956.92
2019-05-23T22:27:36.586Z,99955.80
2019-05-23T22:30:08.780Z,99931.25
2019-05-23T22:32:40.715Z,99931.25
2019-05-23T22:35:14.187Z,99954.36
2019-05-23T22:37:46.210Z,99956.44
2019-05-23T22:40:18.205Z,99956.92
2019-05-23T22:42:50.192Z,99960.05
2019-05-23T22:45:23.572Z,99960.05
2019-05-23T22:47:55.354Z,99957.48
2019-05-23T22:50:27.182Z,99962.83
2019-05-23T22:52:59.184Z,99957.59
2019-05-23T22:55:31.649Z,99959.62
2019-05-23T22:58:03.462Z,99959.69
2019-05-23T23:00:39.659Z,99963.51
2019-05-23T23:03:12.462Z,99963.51
2019-05-23T23:05:44.430Z,99967.16
2019-05-23T23:08:16.793Z,99967.16
2019-05-23T23:10:48.751Z,99967.16
2019-05-23T23:13:20.556Z,99973.93
2019-05-23T23:15:52.684Z,99971.72
2019-05-23T23:18:24.850Z,99970.98
2019-05-23T23:20:56.735Z,99966.79
2019-05-23T23:23:28.554Z,99964.23
2019-05-23T23:26:00.677Z,99958.02
2019-05-23T23:28:32.826Z,99959.34
2019-05-23T23:31:05.102Z,99966.67
2019-05-23T23:33:37.075Z,99966.67
2019-05-23T23:36:08.976Z,99946.77
2019-05-23T23:38:40.733Z,99946.77
2019-05-23T23:41:12.552Z,99964.87
2019-05-23T23:43:58.695Z,99958.22
2019-05-23T23:46:36.576Z,99957.23
2019-05-23T23:49:26.739Z,99952.87
2019-05-23T23:52:16.335Z,99952.87
2019-05-23T23:55:05.882Z,99958.98
2019-05-23T23:57:55.375Z,99960.98
